createdAt,value
2019-04-30T00:01:17.036Z,69.05
2019-04-30T00:03:50.479Z,67.20
2019-04-30T00:08:55.113Z,73.60
2019-04-30T00:11:25.026Z,69.16
2019-04-30T00:13:55.382Z,65.26
2019-04-30T00:16:22.836Z,73.64
2019-04-30T00:18:58.174Z,65.04
2019-04-30T00:21:20.911Z,62.81
2019-04-30T00:23:49.026Z,68.67
2019-04-30T00:26:17.378Z,71.53
2019-04-30T00:28:47.718Z,62.76
2019-04-30T00:31:17.637Z,72.17
2019-04-30T00:33:45.275Z,65.12
2019-04-30T00:36:14.825Z,65.05
2019-04-30T00:38:44.811Z,69.48
2019-04-30T00:41:12.991Z,66.24
2019-04-30T00:43:46.754Z,71.47
2019-04-30T00:46:11.063Z,72.49
2019-04-30T00:48:39.231Z,63.77
2019-04-30T00:51:14.010Z,63.49
2019-04-30T00:53:37.273Z,73.84
2019-04-30T00:56:05.788Z,75.14
2019-04-30T00:58:35.674Z,69.72
2019-04-30T01:01:20.650Z,75.62
2019-04-30T01:03:55.867Z,74.25
2019-04-30T01:06:28.483Z,67.71
2019-04-30T01:08:58.231Z,67.63
2019-04-30T01:11:25.364Z,78.99
2019-04-30T01:13:54.001Z,77.78
2019-04-30T01:16:23.627Z,68.34
2019-04-30T01:18:52.092Z,66.83
2019-04-30T01:21:20.311Z,69.42
2019-04-30T01:23:54.601Z,63.79
2019-04-30T01:26:18.754Z,72.54
2019-04-30T01:28:49.365Z,77.35
2019-04-30T01:31:18.739Z,79.77
2019-04-30T01:33:48.898Z,69.50
2019-04-30T01:36:17.116Z,75.49
2019-04-30T01:38:49.063Z,64.74
2019-04-30T01:41:15.220Z,62.68
2019-04-30T01:43:43.422Z,61.83
2019-04-30T01:46:13.925Z,61.76
2019-04-30T01:48:43.733Z,62.35
2019-04-30T01:51:13.488Z,61.67
2019-04-30T01:53:43.651Z,61.73
2019-04-30T01:56:45.245Z,61.67
2019-04-30T01:59:25.654Z,61.41
2019-04-30T02:01:53.838Z,61.67
2019-04-30T02:04:22.015Z,61.54
2019-04-30T02:06:50.117Z,61.92
2019-04-30T02:09:18.874Z,61.94
2019-04-30T02:11:48.794Z,61.73
2019-04-30T02:14:18.827Z,62.02
2019-04-30T02:16:49.305Z,61.70
2019-04-30T02:19:18.811Z,61.84
2019-04-30T02:21:48.707Z,61.31
2019-04-30T02:24:19.044Z,61.59
2019-04-30T02:26:48.379Z,65.10
2019-04-30T02:29:16.613Z,62.61
2019-04-30T02:31:44.709Z,64.09
2019-04-30T02:34:22.237Z,61.29
2019-04-30T02:37:09.819Z,61.31
2019-04-30T02:39:40.289Z,60.47
2019-04-30T02:42:09.703Z,62.41
2019-04-30T02:44:41.373Z,61.21
2019-04-30T02:47:11.765Z,67.68
2019-04-30T02:49:40.914Z,60.69
2019-04-30T02:52:09.857Z,68.90
2019-04-30T02:54:59.345Z,71.34
2019-04-30T02:57:29.914Z,69.19
2019-04-30T03:00:05.554Z,79.32
2019-04-30T03:02:33.714Z,64.44
2019-04-30T03:05:02.020Z,74.50
2019-04-30T03:07:30.281Z,75.31
2019-04-30T03:09:59.847Z,73.93
2019-04-30T03:12:33.154Z,75.52
2019-04-30T03:15:00.398Z,74.29
2019-04-30T03:17:46.840Z,77.69
2019-04-30T03:20:40.219Z,78.53
2019-04-30T03:23:09.799Z,76.98
2019-04-30T03:25:40.513Z,81.11
2019-04-30T03:28:09.736Z,81.49
2019-04-30T03:30:42.116Z,66.43
2019-04-30T03:33:12.239Z,80.61
2019-04-30T03:35:46.530Z,82.13
2019-04-30T03:38:09.704Z,82.28
2019-04-30T03:40:40.221Z,82.51
2019-04-30T03:43:09.955Z,82.85
2019-04-30T03:45:40.012Z,81.58
2019-04-30T03:48:09.950Z,82.00
2019-04-30T03:50:50.437Z,82.63
2019-04-30T03:53:06.874Z,82.67
2019-04-30T03:55:34.995Z,82.78
2019-04-30T03:58:03.158Z,82.98
2019-04-30T04:00:50.360Z,77.36
2019-04-30T04:03:20.149Z,79.88
2019-04-30T04:05:53.405Z,68.33
2019-04-30T04:08:39.072Z,79.29
2019-04-30T04:11:21.086Z,81.35
2019-04-30T04:13:49.596Z,82.82
2019-04-30T04:16:19.528Z,81.70
2019-04-30T04:18:50.079Z,80.93
2019-04-30T04:21:20.447Z,81.97
2019-04-30T04:23:49.288Z,81.96
2019-04-30T04:26:20.071Z,78.92
2019-04-30T04:28:49.418Z,66.23
2019-04-30T04:31:19.324Z,78.52
2019-04-30T04:33:52.257Z,64.72
2019-04-30T04:36:16.870Z,75.88
2019-04-30T04:38:45.377Z,76.40
2019-04-30T04:41:13.694Z,63.00
2019-04-30T04:43:41.890Z,69.43
2019-04-30T04:46:10.235Z,61.25
2019-04-30T04:48:39.443Z,65.11
2019-04-30T04:51:19.750Z,62.90
2019-04-30T04:53:40.001Z,74.01
2019-04-30T04:56:09.865Z,68.20
2019-04-30T04:58:39.993Z,72.25
2019-04-30T05:01:09.048Z,77.16
2019-04-30T05:03:39.953Z,63.89
2019-04-30T05:06:11.354Z,62.38
2019-04-30T05:08:39.656Z,71.95
2019-04-30T05:11:09.571Z,62.76
2019-04-30T05:13:38.936Z,59.53
2019-04-30T05:16:09.204Z,65.26
2019-04-30T05:18:39.137Z,75.81
2019-04-30T05:21:08.854Z,77.61
2019-04-30T05:23:39.313Z,78.47
2019-04-30T05:26:08.417Z,78.76
2019-04-30T05:28:36.935Z,79.05
2019-04-30T05:31:05.294Z,79.43
2019-04-30T05:33:33.448Z,78.85
2019-04-30T05:36:01.680Z,78.70
2019-04-30T05:38:31.291Z,79.09
2019-04-30T05:40:59.724Z,77.01
2019-04-30T05:43:29.005Z,75.02
2019-04-30T05:45:58.720Z,74.40
2019-04-30T05:48:28.630Z,74.52
2019-04-30T05:50:58.985Z,74.97
2019-04-30T05:53:28.679Z,74.60
2019-04-30T05:55:57.008Z,74.02
2019-04-30T05:58:25.197Z,66.11
2019-04-30T06:00:53.372Z,74.21
2019-04-30T06:03:28.168Z,74.52
2019-04-30T06:05:51.506Z,73.09
2019-04-30T06:08:21.704Z,73.80
2019-04-30T06:10:59.772Z,71.21
2019-04-30T06:13:53.014Z,70.92
2019-04-30T06:16:23.282Z,71.43
2019-04-30T06:18:51.517Z,72.90
2019-04-30T06:21:21.573Z,70.01
2019-04-30T06:23:49.694Z,68.53
2019-04-30T06:26:20.489Z,70.23
2019-04-30T06:28:49.614Z,69.25
2019-04-30T06:31:22.301Z,69.83
2019-04-30T06:33:48.729Z,68.84
2019-04-30T06:36:19.070Z,68.34
2019-04-30T06:38:48.866Z,66.82
2019-04-30T06:41:16.899Z,68.58
2019-04-30T06:43:45.152Z,68.61
2019-04-30T06:46:13.270Z,68.53
2019-04-30T06:48:42.017Z,68.51
2019-04-30T06:51:10.134Z,66.65
2019-04-30T06:53:39.175Z,67.63
2019-04-30T06:56:08.898Z,67.26
2019-04-30T06:58:39.183Z,69.94
2019-04-30T07:01:07.164Z,65.35
2019-04-30T07:03:35.298Z,64.63
2019-04-30T07:06:03.556Z,67.48
2019-04-30T07:08:57.893Z,67.35
2019-04-30T07:11:33.455Z,67.69
2019-04-30T07:14:01.581Z,67.29
2019-04-30T07:16:30.052Z,67.47
2019-04-30T07:18:58.603Z,63.10
2019-04-30T07:21:29.432Z,63.59
2019-04-30T07:23:57.382Z,63.45
2019-04-30T07:26:25.550Z,64.79
2019-04-30T07:28:55.241Z,64.82
2019-04-30T07:31:23.706Z,63.82
2019-04-30T07:33:53.864Z,65.16
2019-04-30T07:36:21.895Z,64.04
2019-04-30T07:38:56.114Z,63.62
2019-04-30T07:41:19.883Z,65.01
2019-04-30T07:43:49.445Z,61.01
2019-04-30T07:46:19.899Z,62.49
2019-04-30T07:48:49.977Z,60.25
2019-04-30T07:51:21.257Z,60.25
2019-04-30T07:53:49.626Z,59.74
2019-04-30T07:56:25.698Z,60.53
2019-04-30T07:58:50.263Z,61.19
2019-04-30T08:01:19.593Z,60.86
2019-04-30T08:03:54.881Z,62.11
2019-04-30T08:06:23.123Z,60.42
2019-04-30T08:08:54.721Z,61.65
2019-04-30T08:11:25.604Z,61.56
2019-04-30T08:13:51.706Z,59.47
2019-04-30T08:16:21.141Z,62.08
2019-04-30T08:18:49.342Z,60.13
2019-04-30T08:21:19.027Z,59.58
2019-04-30T08:23:48.949Z,59.08
2019-04-30T08:26:18.783Z,56.08
2019-04-30T08:28:48.757Z,57.31
2019-04-30T08:31:19.392Z,58.18
2019-04-30T08:33:49.089Z,57.25
2019-04-30T08:36:17.073Z,55.96
2019-04-30T08:38:45.209Z,57.18
2019-04-30T08:41:13.400Z,61.59
2019-04-30T08:43:41.581Z,60.29
2019-04-30T08:46:09.780Z,57.20
2019-04-30T08:48:47.790Z,59.79
2019-04-30T08:51:09.963Z,55.10
2019-04-30T08:53:38.855Z,59.67
2019-04-30T08:56:07.725Z,51.30
2019-04-30T08:58:35.900Z,59.35
2019-04-30T09:01:04.127Z,53.79
2019-04-30T09:03:32.265Z,59.89
2019-04-30T09:06:14.508Z,52.28
2019-04-30T09:08:44.154Z,56.28
2019-04-30T09:11:22.375Z,53.80
2019-04-30T09:13:42.479Z,53.92
2019-04-30T09:16:10.622Z,51.94
2019-04-30T09:18:39.347Z,54.85
2019-04-30T09:21:08.991Z,54.50
2019-04-30T09:23:47.343Z,54.82
2019-04-30T09:26:08.669Z,57.39
2019-04-30T09:28:37.045Z,53.18
2019-04-30T09:31:05.209Z,50.98
2019-04-30T09:33:33.427Z,53.26
2019-04-30T09:36:01.674Z,60.04
2019-04-30T09:38:29.816Z,59.59
2019-04-30T09:40:59.373Z,58.75
2019-04-30T09:43:28.599Z,51.13
2019-04-30T09:45:59.316Z,60.79
2019-04-30T09:48:30.316Z,55.26
2019-04-30T09:51:00.270Z,58.64
2019-04-30T09:53:29.471Z,51.24
2019-04-30T09:55:59.505Z,52.89
2019-04-30T09:58:27.264Z,61.39
2019-04-30T10:00:55.394Z,48.83
2019-04-30T10:03:24.241Z,50.81
2019-04-30T10:05:52.872Z,54.86
2019-04-30T10:08:21.665Z,55.27
2019-04-30T10:10:58.822Z,46.86
2019-04-30T10:13:27.102Z,48.35
2019-04-30T10:16:01.982Z,45.07
2019-04-30T10:18:30.250Z,57.22
2019-04-30T10:20:58.914Z,45.23
2019-04-30T10:23:27.507Z,43.65
2019-04-30T10:25:55.638Z,44.50
2019-04-30T10:28:23.895Z,54.18
2019-04-30T10:30:52.052Z,42.39
2019-04-30T10:33:20.231Z,57.82
2019-04-30T10:35:49.574Z,51.54
2019-04-30T10:38:19.533Z,43.46
2019-04-30T10:40:49.227Z,51.29
2019-04-30T10:43:17.413Z,46.18
2019-04-30T10:45:45.600Z,60.34
2019-04-30T10:48:13.768Z,54.76
2019-04-30T10:50:41.907Z,43.80
2019-04-30T10:53:12.434Z,57.48
2019-04-30T10:55:39.054Z,55.03
2019-04-30T10:58:07.226Z,47.39
2019-04-30T11:00:40.118Z,52.41
2019-04-30T11:03:19.212Z,46.45
2019-04-30T11:05:41.177Z,43.17
2019-04-30T11:08:09.194Z,50.98
2019-04-30T11:10:37.421Z,40.98
2019-04-30T11:13:05.691Z,46.05
2019-04-30T11:15:34.026Z,44.08
2019-04-30T11:18:02.424Z,53.47
2019-04-30T11:20:31.054Z,41.98
2019-04-30T11:22:59.754Z,54.96
2019-04-30T11:25:30.817Z,39.96
2019-04-30T11:27:58.463Z,48.94
2019-04-30T11:30:29.408Z,37.55
2019-04-30T11:32:55.837Z,43.49
2019-04-30T11:35:24.830Z,38.43
2019-04-30T11:37:53.456Z,41.75
2019-04-30T11:40:34.452Z,36.29
2019-04-30T11:42:58.485Z,50.76
2019-04-30T11:45:47.742Z,43.36
2019-04-30T11:48:15.906Z,46.16
2019-04-30T11:50:44.155Z,43.96
2019-04-30T11:53:24.528Z,40.08
2019-04-30T11:55:42.204Z,42.95
2019-04-30T11:58:21.167Z,37.45
2019-04-30T12:00:42.255Z,38.67
2019-04-30T12:03:10.657Z,40.42
2019-04-30T12:05:38.978Z,38.71
2019-04-30T12:08:15.627Z,40.48
2019-04-30T12:11:05.921Z,46.49
2019-04-30T12:13:34.267Z,41.54
2019-04-30T12:16:02.627Z,37.63
2019-04-30T12:18:30.797Z,42.60
2019-04-30T12:20:59.173Z,42.96
2019-04-30T12:23:27.411Z,38.59
2019-04-30T12:25:55.608Z,37.42
2019-04-30T12:28:23.857Z,43.16
2019-04-30T12:30:52.069Z,43.04
2019-04-30T12:33:20.229Z,41.65
2019-04-30T12:35:50.988Z,40.35
2019-04-30T12:38:19.202Z,39.09
2019-04-30T12:40:47.474Z,40.88
2019-04-30T12:43:15.733Z,40.50
2019-04-30T12:45:43.894Z,43.08
2019-04-30T12:48:20.027Z,38.40
2019-04-30T12:51:06.033Z,39.33
2019-04-30T12:53:48.323Z,41.92
2019-04-30T12:56:35.468Z,38.60
2019-04-30T12:59:03.771Z,39.58
2019-04-30T13:01:34.169Z,41.93
2019-04-30T13:04:01.738Z,39.03
2019-04-30T13:06:30.480Z,43.61
2019-04-30T13:09:00.744Z,41.32
2019-04-30T13:11:30.832Z,39.81
2019-04-30T13:14:00.273Z,41.29
2019-04-30T13:16:29.323Z,45.16
2019-04-30T13:18:59.388Z,42.40
2019-04-30T13:21:28.478Z,42.40
2019-04-30T13:23:56.844Z,40.03
2019-04-30T13:26:25.089Z,40.45
2019-04-30T13:29:00.693Z,40.93
2019-04-30T13:31:29.474Z,42.62
2019-04-30T13:34:08.546Z,37.33
2019-04-30T13:36:36.737Z,40.64
2019-04-30T13:39:13.645Z,35.53
2019-04-30T13:42:01.225Z,37.33
2019-04-30T13:44:33.054Z,35.35
2019-04-30T13:47:01.308Z,38.26
2019-04-30T13:49:30.267Z,39.93
2019-04-30T13:51:58.524Z,35.19
2019-04-30T13:54:26.710Z,38.51
2019-04-30T13:56:54.921Z,40.04
2019-04-30T13:59:23.242Z,40.51
2019-04-30T14:01:51.358Z,38.93
2019-04-30T14:04:29.710Z,43.38
2019-04-30T14:07:15.350Z,35.51
2019-04-30T14:09:43.680Z,41.17
2019-04-30T14:12:11.920Z,34.91
2019-04-30T14:14:40.330Z,35.85
2019-04-30T14:17:09.214Z,39.63
2019-04-30T14:19:37.592Z,38.89
2019-04-30T14:22:08.823Z,43.80
2019-04-30T14:24:36.764Z,38.48
2019-04-30T14:27:06.212Z,39.12
2019-04-30T14:29:34.405Z,36.93
2019-04-30T14:32:02.638Z,40.44
2019-04-30T14:34:30.906Z,37.08
2019-04-30T14:36:59.461Z,38.71
2019-04-30T14:39:29.196Z,39.23
2019-04-30T14:42:00.068Z,38.66
2019-04-30T14:44:31.009Z,39.95
2019-04-30T14:47:09.670Z,37.00
2019-04-30T14:50:01.661Z,36.00
2019-04-30T14:52:23.636Z,34.35
2019-04-30T14:55:18.643Z,36.41
2019-04-30T14:58:00.745Z,38.62
2019-04-30T15:00:59.576Z,39.45
2019-04-30T15:03:29.480Z,41.69
2019-04-30T15:05:58.838Z,39.28
2019-04-30T15:08:26.655Z,37.16
2019-04-30T15:10:54.916Z,38.69
2019-04-30T15:13:23.071Z,37.85
2019-04-30T15:15:51.308Z,37.28
2019-04-30T15:18:21.979Z,40.83
2019-04-30T15:20:50.184Z,38.25
2019-04-30T15:23:36.472Z,42.96
2019-04-30T15:26:04.843Z,38.38
2019-04-30T15:28:33.101Z,40.28
2019-04-30T15:31:01.750Z,40.64
2019-04-30T15:33:46.118Z,37.51
2019-04-30T15:36:14.267Z,36.64
2019-04-30T15:39:01.404Z,42.12
2019-04-30T15:41:29.994Z,40.71
2019-04-30T15:43:58.135Z,41.99
2019-04-30T15:46:26.344Z,40.01
2019-04-30T15:48:54.733Z,37.71
2019-04-30T15:51:22.969Z,38.98
2019-04-30T15:53:51.149Z,41.17
2019-04-30T15:56:19.506Z,39.59
2019-04-30T15:59:08.986Z,44.33
2019-04-30T16:01:37.716Z,39.70
2019-04-30T16:04:10.093Z,38.70
2019-04-30T16:06:38.520Z,36.96
2019-04-30T16:09:08.204Z,38.09
2019-04-30T16:11:46.393Z,35.52
2019-04-30T16:14:35.352Z,35.79
2019-04-30T16:17:22.476Z,37.31
2019-04-30T16:19:50.715Z,39.70
2019-04-30T16:22:20.767Z,40.42
2019-04-30T16:24:49.507Z,36.95
2019-04-30T16:27:19.185Z,36.12
2019-04-30T16:29:49.611Z,36.88
2019-04-30T16:32:17.452Z,41.14
2019-04-30T16:34:45.645Z,39.93
2019-04-30T16:37:13.838Z,39.86
2019-04-30T16:39:42.109Z,41.84
2019-04-30T16:42:10.394Z,41.78
2019-04-30T16:44:38.552Z,39.41
2019-04-30T16:47:13.605Z,40.33
2019-04-30T16:49:35.753Z,40.98
2019-04-30T16:52:03.884Z,41.22
2019-04-30T16:54:32.041Z,43.97
2019-04-30T16:57:04.067Z,38.76
2019-04-30T16:59:41.275Z,42.40
2019-04-30T17:02:10.108Z,41.77
2019-04-30T17:04:57.262Z,39.44
2019-04-30T17:07:43.054Z,39.11
2019-04-30T17:10:18.842Z,36.05
2019-04-30T17:13:03.080Z,39.60
2019-04-30T17:15:31.880Z,39.02
2019-04-30T17:18:00.188Z,41.82
2019-04-30T17:20:28.806Z,41.17
2019-04-30T17:22:57.110Z,37.65
2019-04-30T17:25:25.308Z,42.60
2019-04-30T17:27:53.491Z,41.12
2019-04-30T17:30:21.666Z,42.94
2019-04-30T17:32:50.095Z,40.96
2019-04-30T17:35:19.185Z,40.47
2019-04-30T17:37:47.530Z,40.67
2019-04-30T17:40:19.078Z,43.80
2019-04-30T17:42:47.509Z,44.59
2019-04-30T17:45:19.355Z,44.89
2019-04-30T17:47:47.224Z,43.72
2019-04-30T17:50:15.520Z,46.00
2019-04-30T17:52:43.714Z,45.39
2019-04-30T17:55:12.168Z,45.48
2019-04-30T17:57:40.498Z,45.49
2019-04-30T18:00:19.194Z,41.89
2019-04-30T18:02:40.197Z,43.63
2019-04-30T18:05:09.114Z,42.14
2019-04-30T18:07:39.471Z,42.94
2019-04-30T18:10:10.959Z,43.30
2019-04-30T18:12:39.274Z,43.71
2019-04-30T18:15:09.405Z,42.66
2019-04-30T18:17:37.589Z,42.38
2019-04-30T18:20:29.363Z,43.03
2019-04-30T18:23:16.500Z,42.92
2019-04-30T18:25:51.426Z,41.19
2019-04-30T18:28:19.646Z,40.84
2019-04-30T18:30:49.061Z,40.53
2019-04-30T18:33:17.472Z,41.09
2019-04-30T18:35:45.677Z,41.28
2019-04-30T18:38:13.884Z,43.37
2019-04-30T18:40:42.263Z,43.73
2019-04-30T18:43:10.594Z,43.98
2019-04-30T18:45:39.613Z,48.72
2019-04-30T18:48:09.708Z,43.39
2019-04-30T18:50:37.863Z,42.89
2019-04-30T18:53:11.591Z,43.79
2019-04-30T18:55:39.798Z,43.27
2019-04-30T18:58:08.784Z,43.62
2019-04-30T19:00:40.590Z,43.68
2019-04-30T19:03:08.800Z,44.43
2019-04-30T19:05:39.311Z,43.81
2019-04-30T19:08:13.531Z,44.70
2019-04-30T19:10:54.623Z,44.43
2019-04-30T19:13:40.843Z,44.68
2019-04-30T19:16:26.712Z,44.97
2019-04-30T19:19:16.647Z,45.07
2019-04-30T19:21:44.846Z,45.25
2019-04-30T19:24:13.075Z,45.42
2019-04-30T19:26:41.268Z,46.74
2019-04-30T19:29:09.608Z,46.10
2019-04-30T19:31:39.462Z,46.50
2019-04-30T19:34:09.767Z,46.54
2019-04-30T19:36:37.834Z,46.57
2019-04-30T19:39:09.727Z,46.37
2019-04-30T19:41:38.595Z,46.34
2019-04-30T19:44:07.057Z,46.23
2019-04-30T19:46:35.326Z,46.51
2019-04-30T19:49:03.482Z,46.59
2019-04-30T19:51:31.635Z,46.84
2019-04-30T19:53:59.973Z,47.04
2019-04-30T19:56:30.330Z,47.17
2019-04-30T19:59:02.798Z,47.12
2019-04-30T20:01:28.647Z,47.41
2019-04-30T20:03:58.786Z,47.41
2019-04-30T20:06:28.729Z,47.57
2019-04-30T20:08:58.775Z,47.95
2019-04-30T20:11:26.943Z,47.82
2019-04-30T20:13:55.099Z,48.18
2019-04-30T20:16:23.287Z,47.88
2019-04-30T20:18:51.467Z,48.19
2019-04-30T20:21:27.987Z,48.26
2019-04-30T20:23:51.345Z,48.18
2019-04-30T20:26:19.525Z,48.29
2019-04-30T20:28:48.765Z,48.39
2019-04-30T20:31:18.896Z,48.30
2019-04-30T20:33:48.958Z,48.81
2019-04-30T20:36:16.679Z,48.63
2019-04-30T20:39:02.750Z,49.02
2019-04-30T20:44:19.851Z,48.84
2019-04-30T20:46:49.097Z,49.18
2019-04-30T20:49:19.215Z,48.93
2019-04-30T20:51:55.186Z,48.94
2019-04-30T20:54:19.004Z,49.33
2019-04-30T20:56:48.345Z,49.35
2019-04-30T20:59:19.059Z,49.22
2019-04-30T21:01:49.030Z,49.59
2019-04-30T21:04:17.104Z,49.57
2019-04-30T21:06:45.677Z,49.43
2019-04-30T21:09:13.859Z,49.52
2019-04-30T21:11:45.036Z,49.53
2019-04-30T21:14:12.037Z,49.62
2019-04-30T21:16:40.537Z,49.92
2019-04-30T21:19:08.789Z,50.07
2019-04-30T21:21:38.725Z,50.01
2019-04-30T21:24:07.103Z,49.93
2019-04-30T21:26:35.353Z,49.70
2019-04-30T21:29:10.954Z,51.53
2019-04-30T21:31:43.013Z,60.63
2019-04-30T21:34:23.220Z,52.47
2019-04-30T21:36:51.331Z,59.37
2019-04-30T21:39:20.165Z,52.04
2019-04-30T21:41:49.424Z,50.43
2019-04-30T21:44:17.664Z,50.09
2019-04-30T21:46:45.935Z,50.13
2019-04-30T21:49:15.258Z,50.00
2019-04-30T21:51:43.492Z,50.10
2019-04-30T21:54:11.588Z,50.94
2019-04-30T21:56:40.723Z,50.89
2019-04-30T21:59:08.876Z,50.12
2019-04-30T22:01:37.143Z,50.12
2019-04-30T22:04:05.500Z,50.19
2019-04-30T22:06:33.886Z,50.09
2019-04-30T22:09:02.139Z,50.22
2019-04-30T22:11:30.475Z,55.60
2019-04-30T22:13:58.962Z,50.54
2019-04-30T22:16:27.202Z,51.36
2019-04-30T22:18:55.400Z,51.67
2019-04-30T22:21:23.615Z,51.25
2019-04-30T22:23:51.855Z,50.24
2019-04-30T22:26:20.094Z,50.23
2019-04-30T22:28:49.420Z,50.71
2019-04-30T22:31:19.603Z,50.22
2019-04-30T22:33:49.051Z,50.36
2019-04-30T22:36:25.690Z,51.95
2019-04-30T22:39:12.818Z,50.70
2019-04-30T22:41:41.034Z,51.04
2019-04-30T22:44:09.284Z,51.36
2019-04-30T22:46:39.378Z,50.97
2019-04-30T22:49:07.685Z,52.65
2019-04-30T22:51:35.918Z,50.96
2019-04-30T22:54:04.228Z,50.79
2019-04-30T22:56:32.801Z,50.60
2019-04-30T22:59:01.153Z,52.76
2019-04-30T23:01:51.205Z,51.29
2019-04-30T23:04:28.713Z,51.58
2019-04-30T23:06:57.094Z,51.67
2019-04-30T23:09:25.383Z,51.01
2019-04-30T23:11:53.815Z,50.90
2019-04-30T23:14:22.019Z,51.22
2019-04-30T23:16:50.265Z,53.54
2019-04-30T23:19:18.493Z,66.63
2019-04-30T23:21:46.901Z,54.12
2019-04-30T23:24:15.235Z,51.19
2019-04-30T23:26:43.454Z,51.34
2019-04-30T23:29:11.719Z,51.95
2019-04-30T23:31:39.921Z,51.21
2019-04-30T23:34:17.841Z,50.82
2019-04-30T23:36:38.199Z,50.85
2019-04-30T23:39:06.835Z,50.74
2019-04-30T23:41:35.085Z,67.33
2019-04-30T23:44:03.487Z,68.99
2019-04-30T23:46:31.698Z,54.20
2019-04-30T23:48:59.863Z,66.08
2019-04-30T23:51:28.058Z,70.79
2019-04-30T23:53:56.348Z,53.36
2019-04-30T23:56:24.613Z,67.63
2019-04-30T23:58:52.915Z,62.29
